sensor_id;sensor_type;location;lat;lon;timestamp;P1;durP1;ratioP1;P2;durP2;ratioP2
31652;SDS011;18261;53.648;9.910;2022-09-12T00:00:10;7.03;;;4.55;;
31652;SDS011;18261;53.648;9.910;2022-09-12T00:02:36;6.47;;;3.67;;
31652;SDS011;18261;53.648;9.910;2022-09-12T00:05:02;5.43;;;3.47;;
31652;SDS011;18261;53.648;9.910;2022-09-12T00:07:28;6.43;;;2.97;;
31652;SDS011;18261;53.648;9.910;2022-09-12T00:09:54;8.27;;;3.53;;
31652;SDS011;18261;53.648;9.910;2022-09-12T00:12:20;10.20;;;3.60;;
31652;SDS011;18261;53.648;9.910;2022-09-12T00:14:46;7.60;;;3.30;;
31652;SDS011;18261;53.648;9.910;2022-09-12T00:17:12;6.90;;;3.33;;
31652;SDS011;18261;53.648;9.910;2022-09-12T00:19:38;6.30;;;3.22;;
31652;SDS011;18261;53.648;9.910;2022-09-12T00:22:04;7.47;;;2.97;;
31652;SDS011;18261;53.648;9.910;2022-09-12T00:24:29;6.07;;;3.58;;
31652;SDS011;18261;53.648;9.910;2022-09-12T00:26:57;9.32;;;3.53;;
31652;SDS011;18261;53.648;9.910;2022-09-12T00:29:23;10.98;;;3.33;;
31652;SDS011;18261;53.648;9.910;2022-09-12T00:31:49;4.65;;;2.95;;
31652;SDS011;18261;53.648;9.910;2022-09-12T00:34:15;4.47;;;3.10;;
31652;SDS011;18261;53.648;9.910;2022-09-12T00:36:41;6.05;;;3.42;;
31652;SDS011;18261;53.648;9.910;2022-09-12T00:39:07;7.13;;;2.97;;
31652;SDS011;18261;53.648;9.910;2022-09-12T00:41:38;5.05;;;2.72;;
31652;SDS011;18261;53.648;9.910;2022-09-12T00:47:05;5.67;;;2.77;;
31652;SDS011;18261;53.648;9.910;2022-09-12T00:57:15;5.80;;;2.60;;
31652;SDS011;18261;53.648;9.910;2022-09-12T00:59:47;4.13;;;2.67;;
31652;SDS011;18261;53.648;9.910;2022-09-12T01:02:14;5.97;;;3.10;;
31652;SDS011;18261;53.648;9.910;2022-09-12T01:04:41;7.05;;;3.20;;
31652;SDS011;18261;53.648;9.910;2022-09-12T01:07:08;7.68;;;3.22;;
31652;SDS011;18261;53.648;9.910;2022-09-12T01:09:34;5.03;;;3.00;;
31652;SDS011;18261;53.648;9.910;2022-09-12T01:12:01;4.68;;;2.53;;
31652;SDS011;18261;53.648;9.910;2022-09-12T01:14:27;4.53;;;2.33;;
31652;SDS011;18261;53.648;9.910;2022-09-12T01:16:54;3.40;;;2.50;;
31652;SDS011;18261;53.648;9.910;2022-09-12T01:19:33;4.60;;;2.58;;
31652;SDS011;18261;53.648;9.910;2022-09-12T01:27:06;6.55;;;2.67;;
31652;SDS011;18261;53.648;9.910;2022-09-12T01:32:12;4.03;;;2.00;;
31652;SDS011;18261;53.648;9.910;2022-09-12T01:34:43;4.13;;;2.50;;
31652;SDS011;18261;53.648;9.910;2022-09-12T01:37:13;2.67;;;2.00;;
31652;SDS011;18261;53.648;9.910;2022-09-12T01:39:52;4.72;;;2.13;;
31652;SDS011;18261;53.648;9.910;2022-09-12T01:44:54;2.92;;;2.13;;
31652;SDS011;18261;53.648;9.910;2022-09-12T01:49:59;4.70;;;2.45;;
31652;SDS011;18261;53.648;9.910;2022-09-12T01:52:35;3.58;;;2.20;;
31652;SDS011;18261;53.648;9.910;2022-09-12T01:57:48;6.68;;;2.45;;
31652;SDS011;18261;53.648;9.910;2022-09-12T02:00:15;3.17;;;2.50;;
31652;SDS011;18261;53.648;9.910;2022-09-12T02:02:44;7.10;;;3.13;;
31652;SDS011;18261;53.648;9.910;2022-09-12T02:07:48;3.95;;;2.35;;
31652;SDS011;18261;53.648;9.910;2022-09-12T02:10:22;6.95;;;2.00;;
31652;SDS011;18261;53.648;9.910;2022-09-12T02:12:57;5.45;;;2.35;;
31652;SDS011;18261;53.648;9.910;2022-09-12T02:15:26;3.80;;;2.13;;
31652;SDS011;18261;53.648;9.910;2022-09-12T02:17:53;3.33;;;2.00;;
31652;SDS011;18261;53.648;9.910;2022-09-12T02:20:22;2.88;;;2.00;;
31652;SDS011;18261;53.648;9.910;2022-09-12T02:22:50;3.20;;;2.10;;
31652;SDS011;18261;53.648;9.910;2022-09-12T02:25:18;4.38;;;1.83;;
31652;SDS011;18261;53.648;9.910;2022-09-12T02:27:48;5.93;;;2.17;;
31652;SDS011;18261;53.648;9.910;2022-09-12T02:30:15;2.75;;;2.08;;
31652;SDS011;18261;53.648;9.910;2022-09-12T02:32:57;3.45;;;1.90;;
31652;SDS011;18261;53.648;9.910;2022-09-12T02:38:11;3.00;;;1.67;;
31652;SDS011;18261;53.648;9.910;2022-09-12T02:40:39;5.45;;;2.00;;
31652;SDS011;18261;53.648;9.910;2022-09-12T02:43:05;3.53;;;1.80;;
31652;SDS011;18261;53.648;9.910;2022-09-12T02:45:32;4.45;;;2.15;;
31652;SDS011;18261;53.648;9.910;2022-09-12T02:47:59;10.23;;;2.72;;
31652;SDS011;18261;53.648;9.910;2022-09-12T02:50:27;4.93;;;2.30;;
31652;SDS011;18261;53.648;9.910;2022-09-12T02:52:53;6.43;;;2.20;;
31652;SDS011;18261;53.648;9.910;2022-09-12T02:55:23;2.80;;;1.90;;
31652;SDS011;18261;53.648;9.910;2022-09-12T02:57:49;4.60;;;2.00;;
31652;SDS011;18261;53.648;9.910;2022-09-12T03:00:15;3.33;;;2.05;;
31652;SDS011;18261;53.648;9.910;2022-09-12T03:02:45;3.67;;;1.88;;
31652;SDS011;18261;53.648;9.910;2022-09-12T03:05:16;5.47;;;2.45;;
31652;SDS011;18261;53.648;9.910;2022-09-12T03:10:38;5.50;;;2.22;;
31652;SDS011;18261;53.648;9.910;2022-09-12T03:16:16;6.43;;;2.80;;
31652;SDS011;18261;53.648;9.910;2022-09-12T03:21:31;4.63;;;2.33;;
31652;SDS011;18261;53.648;9.910;2022-09-12T03:26:30;4.40;;;2.13;;
31652;SDS011;18261;53.648;9.910;2022-09-12T03:28:57;7.18;;;2.08;;
31652;SDS011;18261;53.648;9.910;2022-09-12T03:31:24;7.13;;;2.28;;
31652;SDS011;18261;53.648;9.910;2022-09-12T03:33:50;6.40;;;2.50;;
31652;SDS011;18261;53.648;9.910;2022-09-12T03:36:23;6.72;;;2.53;;
31652;SDS011;18261;53.648;9.910;2022-09-12T03:38:49;3.63;;;2.60;;
31652;SDS011;18261;53.648;9.910;2022-09-12T03:41:15;4.85;;;2.40;;
31652;SDS011;18261;53.648;9.910;2022-09-12T03:43:42;4.60;;;2.40;;
31652;SDS011;18261;53.648;9.910;2022-09-12T03:46:08;6.30;;;2.63;;
31652;SDS011;18261;53.648;9.910;2022-09-12T03:48:34;7.80;;;3.08;;
31652;SDS011;18261;53.648;9.910;2022-09-12T03:51:01;6.20;;;2.83;;
31652;SDS011;18261;53.648;9.910;2022-09-12T03:53:28;5.95;;;3.65;;
31652;SDS011;18261;53.648;9.910;2022-09-12T03:55:54;6.60;;;3.28;;
31652;SDS011;18261;53.648;9.910;2022-09-12T03:58:20;9.43;;;3.25;;
31652;SDS011;18261;53.648;9.910;2022-09-12T04:00:46;7.10;;;2.60;;
31652;SDS011;18261;53.648;9.910;2022-09-12T04:03:12;11.32;;;2.50;;
31652;SDS011;18261;53.648;9.910;2022-09-12T04:05:38;7.60;;;2.60;;
31652;SDS011;18261;53.648;9.910;2022-09-12T04:08:04;5.20;;;2.92;;
31652;SDS011;18261;53.648;9.910;2022-09-12T04:10:30;4.35;;;2.47;;
31652;SDS011;18261;53.648;9.910;2022-09-12T04:12:56;3.80;;;2.45;;
31652;SDS011;18261;53.648;9.910;2022-09-12T04:15:22;12.40;;;2.90;;
31652;SDS011;18261;53.648;9.910;2022-09-12T04:17:48;5.03;;;3.00;;
31652;SDS011;18261;53.648;9.910;2022-09-12T04:20:14;4.50;;;2.80;;
31652;SDS011;18261;53.648;9.910;2022-09-12T04:22:40;7.55;;;3.63;;
31652;SDS011;18261;53.648;9.910;2022-09-12T04:25:06;7.45;;;4.35;;
31652;SDS011;18261;53.648;9.910;2022-09-12T04:27:33;18.92;;;5.60;;
31652;SDS011;18261;53.648;9.910;2022-09-12T04:29:59;10.43;;;4.18;;
31652;SDS011;18261;53.648;9.910;2022-09-12T04:32:27;6.50;;;3.45;;
31652;SDS011;18261;53.648;9.910;2022-09-12T04:34:53;10.93;;;3.58;;
31652;SDS011;18261;53.648;9.910;2022-09-12T04:37:19;8.10;;;3.85;;
31652;SDS011;18261;53.648;9.910;2022-09-12T04:39:45;5.70;;;3.10;;
31652;SDS011;18261;53.648;9.910;2022-09-12T04:42:13;7.70;;;3.40;;
31652;SDS011;18261;53.648;9.910;2022-09-12T04:44:39;6.65;;;3.60;;
31652;SDS011;18261;53.648;9.910;2022-09-12T04:47:05;10.70;;;3.75;;
31652;SDS011;18261;53.648;9.910;2022-09-12T04:49:31;10.48;;;6.05;;
31652;SDS011;18261;53.648;9.910;2022-09-12T04:51:57;6.68;;;4.03;;
31652;SDS011;18261;53.648;9.910;2022-09-12T04:54:23;5.45;;;3.22;;
31652;SDS011;18261;53.648;9.910;2022-09-12T04:56:49;5.60;;;3.40;;
31652;SDS011;18261;53.648;9.910;2022-09-12T04:59:16;6.82;;;4.05;;
31652;SDS011;18261;53.648;9.910;2022-09-12T05:01:43;4.80;;;3.65;;
31652;SDS011;18261;53.648;9.910;2022-09-12T05:04:10;6.90;;;4.20;;
31652;SDS011;18261;53.648;9.910;2022-09-12T05:06:37;8.65;;;4.05;;
31652;SDS011;18261;53.648;9.910;2022-09-12T05:09:04;7.82;;;4.90;;
31652;SDS011;18261;53.648;9.910;2022-09-12T05:11:32;19.45;;;7.82;;
31652;SDS011;18261;53.648;9.910;2022-09-12T05:13:58;9.55;;;5.22;;
31652;SDS011;18261;53.648;9.910;2022-09-12T05:16:25;13.50;;;4.90;;
31652;SDS011;18261;53.648;9.910;2022-09-12T05:18:51;9.18;;;4.22;;
31652;SDS011;18261;53.648;9.910;2022-09-12T05:21:19;9.85;;;4.72;;
31652;SDS011;18261;53.648;9.910;2022-09-12T05:23:52;9.68;;;4.30;;
31652;SDS011;18261;53.648;9.910;2022-09-12T05:26:19;13.20;;;5.30;;
31652;SDS011;18261;53.648;9.910;2022-09-12T05:28:47;12.88;;;5.88;;
31652;SDS011;18261;53.648;9.910;2022-09-12T05:31:31;17.58;;;6.43;;
31652;SDS011;18261;53.648;9.910;2022-09-12T05:33:57;17.90;;;5.88;;
31652;SDS011;18261;53.648;9.910;2022-09-12T05:36:24;11.43;;;5.38;;
31652;SDS011;18261;53.648;9.910;2022-09-12T05:38:51;14.82;;;6.68;;
31652;SDS011;18261;53.648;9.910;2022-09-12T05:41:24;24.52;;;8.02;;
31652;SDS011;18261;53.648;9.910;2022-09-12T05:43:54;23.85;;;7.13;;
31652;SDS011;18261;53.648;9.910;2022-09-12T05:46:21;18.55;;;6.57;;
31652;SDS011;18261;53.648;9.910;2022-09-12T05:48:48;23.45;;;6.35;;
31652;SDS011;18261;53.648;9.910;2022-09-12T05:51:15;15.90;;;8.50;;
31652;SDS011;18261;53.648;9.910;2022-09-12T05:53:43;16.73;;;9.45;;
31652;SDS011;18261;53.648;9.910;2022-09-12T05:56:10;14.82;;;8.18;;
31652;SDS011;18261;53.648;9.910;2022-09-12T05:58:37;13.98;;;7.72;;
31652;SDS011;18261;53.648;9.910;2022-09-12T06:01:04;18.50;;;7.90;;
31652;SDS011;18261;53.648;9.910;2022-09-12T06:03:32;11.27;;;7.30;;
31652;SDS011;18261;53.648;9.910;2022-09-12T06:06:00;16.50;;;7.60;;
31652;SDS011;18261;53.648;9.910;2022-09-12T06:08:27;14.80;;;7.85;;
31652;SDS011;18261;53.648;9.910;2022-09-12T06:10:57;14.20;;;8.07;;
31652;SDS011;18261;53.648;9.910;2022-09-12T06:13:23;12.77;;;8.23;;
31652;SDS011;18261;53.648;9.910;2022-09-12T06:15:49;14.82;;;8.55;;
31652;SDS011;18261;53.648;9.910;2022-09-12T06:18:15;16.13;;;10.57;;
31652;SDS011;18261;53.648;9.910;2022-09-12T06:20:41;17.15;;;11.38;;
31652;SDS011;18261;53.648;9.910;2022-09-12T06:23:07;24.73;;;11.55;;
31652;SDS011;18261;53.648;9.910;2022-09-12T06:25:33;20.60;;;12.13;;
31652;SDS011;18261;53.648;9.910;2022-09-12T06:27:59;17.17;;;11.75;;
31652;SDS011;18261;53.648;9.910;2022-09-12T06:30:25;22.60;;;12.57;;
31652;SDS011;18261;53.648;9.910;2022-09-12T06:32:51;18.50;;;12.25;;
31652;SDS011;18261;53.648;9.910;2022-09-12T06:35:17;18.20;;;12.05;;
31652;SDS011;18261;53.648;9.910;2022-09-12T06:37:43;23.77;;;12.82;;
31652;SDS011;18261;53.648;9.910;2022-09-12T06:40:09;23.70;;;13.55;;
31652;SDS011;18261;53.648;9.910;2022-09-12T06:42:36;23.70;;;14.02;;
31652;SDS011;18261;53.648;9.910;2022-09-12T06:45:02;28.88;;;14.70;;
31652;SDS011;18261;53.648;9.910;2022-09-12T06:47:28;23.70;;;13.13;;
31652;SDS011;18261;53.648;9.910;2022-09-12T06:49:54;24.02;;;14.20;;
31652;SDS011;18261;53.648;9.910;2022-09-12T06:52:20;25.60;;;14.90;;
31652;SDS011;18261;53.648;9.910;2022-09-12T06:54:46;29.70;;;14.52;;
31652;SDS011;18261;53.648;9.910;2022-09-12T06:57:12;30.83;;;14.55;;
31652;SDS011;18261;53.648;9.910;2022-09-12T06:59:38;42.60;;;19.52;;
31652;SDS011;18261;53.648;9.910;2022-09-12T07:02:05;98.55;;;38.92;;
31652;SDS011;18261;53.648;9.910;2022-09-12T07:04:31;95.13;;;37.70;;
31652;SDS011;18261;53.648;9.910;2022-09-12T07:07:00;32.22;;;14.88;;
31652;SDS011;18261;53.648;9.910;2022-09-12T07:09:26;20.10;;;12.70;;
31652;SDS011;18261;53.648;9.910;2022-09-12T07:11:54;22.73;;;13.60;;
31652;SDS011;18261;53.648;9.910;2022-09-12T07:14:20;32.00;;;15.07;;
31652;SDS011;18261;53.648;9.910;2022-09-12T07:16:46;38.05;;;18.20;;
31652;SDS011;18261;53.648;9.910;2022-09-12T07:19:12;22.75;;;14.30;;
31652;SDS011;18261;53.648;9.910;2022-09-12T07:21:38;84.95;;;34.75;;
31652;SDS011;18261;53.648;9.910;2022-09-12T07:24:05;40.00;;;18.75;;
31652;SDS011;18261;53.648;9.910;2022-09-12T07:26:33;27.42;;;13.30;;
31652;SDS011;18261;53.648;9.910;2022-09-12T07:28:59;47.63;;;19.67;;
31652;SDS011;18261;53.648;9.910;2022-09-12T07:31:26;18.38;;;11.35;;
31652;SDS011;18261;53.648;9.910;2022-09-12T07:33:52;52.45;;;23.17;;
31652;SDS011;18261;53.648;9.910;2022-09-12T07:36:19;31.60;;;14.55;;
31652;SDS011;18261;53.648;9.910;2022-09-12T07:38:46;31.02;;;14.07;;
31652;SDS011;18261;53.648;9.910;2022-09-12T07:41:12;18.27;;;10.52;;
31652;SDS011;18261;53.648;9.910;2022-09-12T07:43:39;15.00;;;9.15;;
31652;SDS011;18261;53.648;9.910;2022-09-12T07:46:05;14.90;;;9.73;;
31652;SDS011;18261;53.648;9.910;2022-09-12T07:48:32;12.27;;;8.48;;
31652;SDS011;18261;53.648;9.910;2022-09-12T07:50:58;15.55;;;9.05;;
31652;SDS011;18261;53.648;9.910;2022-09-12T07:53:24;15.05;;;8.82;;
31652;SDS011;18261;53.648;9.910;2022-09-12T07:55:54;12.32;;;8.88;;
31652;SDS011;18261;53.648;9.910;2022-09-12T07:58:20;14.30;;;9.00;;
31652;SDS011;18261;53.648;9.910;2022-09-12T08:00:46;18.15;;;9.30;;
31652;SDS011;18261;53.648;9.910;2022-09-12T08:03:12;12.35;;;8.45;;
31652;SDS011;18261;53.648;9.910;2022-09-12T08:05:38;12.23;;;8.60;;
31652;SDS011;18261;53.648;9.910;2022-09-12T08:08:04;13.52;;;8.55;;
31652;SDS011;18261;53.648;9.910;2022-09-12T08:10:30;16.25;;;7.78;;
31652;SDS011;18261;53.648;9.910;2022-09-12T08:12:56;13.73;;;7.38;;
31652;SDS011;18261;53.648;9.910;2022-09-12T08:15:23;10.57;;;6.75;;
31652;SDS011;18261;53.648;9.910;2022-09-12T08:17:49;12.68;;;6.53;;
31652;SDS011;18261;53.648;9.910;2022-09-12T08:20:15;10.13;;;6.43;;
31652;SDS011;18261;53.648;9.910;2022-09-12T08:22:42;9.13;;;5.47;;
31652;SDS011;18261;53.648;9.910;2022-09-12T08:25:08;11.27;;;5.70;;
31652;SDS011;18261;53.648;9.910;2022-09-12T08:27:34;7.75;;;5.28;;
31652;SDS011;18261;53.648;9.910;2022-09-12T08:30:00;5.50;;;4.32;;
31652;SDS011;18261;53.648;9.910;2022-09-12T08:32:26;10.55;;;5.05;;
31652;SDS011;18261;53.648;9.910;2022-09-12T08:34:52;7.18;;;4.60;;
31652;SDS011;18261;53.648;9.910;2022-09-12T08:37:18;6.07;;;4.13;;
31652;SDS011;18261;53.648;9.910;2022-09-12T08:39:44;8.82;;;4.15;;
31652;SDS011;18261;53.648;9.910;2022-09-12T08:42:15;9.48;;;4.30;;
31652;SDS011;18261;53.648;9.910;2022-09-12T08:44:53;7.43;;;3.90;;
31652;SDS011;18261;53.648;9.910;2022-09-12T08:47:39;6.72;;;4.13;;
31652;SDS011;18261;53.648;9.910;2022-09-12T08:52:46;25.90;;;7.55;;
31652;SDS011;18261;53.648;9.910;2022-09-12T08:55:57;7.45;;;3.58;;
31652;SDS011;18261;53.648;9.910;2022-09-12T08:58:25;5.40;;;3.35;;
31652;SDS011;18261;53.648;9.910;2022-09-12T09:03:42;10.95;;;2.88;;
31652;SDS011;18261;53.648;9.910;2022-09-12T09:09:13;8.43;;;3.08;;
31652;SDS011;18261;53.648;9.910;2022-09-12T09:17:16;9.68;;;2.47;;
31652;SDS011;18261;53.648;9.910;2022-09-12T09:19:45;3.28;;;2.05;;
31652;SDS011;18261;53.648;9.910;2022-09-12T09:22:15;6.18;;;1.83;;
31652;SDS011;18261;53.648;9.910;2022-09-12T09:24:50;3.67;;;1.90;;
31652;SDS011;18261;53.648;9.910;2022-09-12T09:27:35;4.75;;;1.73;;
31652;SDS011;18261;53.648;9.910;2022-09-12T09:30:03;9.35;;;1.90;;
31652;SDS011;18261;53.648;9.910;2022-09-12T09:32:33;3.50;;;1.75;;
31652;SDS011;18261;53.648;9.910;2022-09-12T09:35:01;3.33;;;1.73;;
31652;SDS011;18261;53.648;9.910;2022-09-12T09:37:31;2.70;;;1.63;;
31652;SDS011;18261;53.648;9.910;2022-09-12T09:40:36;3.88;;;1.90;;
31652;SDS011;18261;53.648;9.910;2022-09-12T09:45:19;8.15;;;2.10;;
31652;SDS011;18261;53.648;9.910;2022-09-12T09:47:59;3.15;;;2.20;;
31652;SDS011;18261;53.648;9.910;2022-09-12T09:50:28;4.97;;;2.88;;
31652;SDS011;18261;53.648;9.910;2022-09-12T09:52:54;4.18;;;1.90;;
31652;SDS011;18261;53.648;9.910;2022-09-12T09:55:22;11.60;;;3.10;;
31652;SDS011;18261;53.648;9.910;2022-09-12T09:57:50;2.83;;;2.00;;
31652;SDS011;18261;53.648;9.910;2022-09-12T10:00:33;8.77;;;3.63;;
31652;SDS011;18261;53.648;9.910;2022-09-12T10:03:01;5.05;;;2.60;;
31652;SDS011;18261;53.648;9.910;2022-09-12T10:05:29;6.22;;;2.80;;
31652;SDS011;18261;53.648;9.910;2022-09-12T10:07:55;5.20;;;2.80;;
31652;SDS011;18261;53.648;9.910;2022-09-12T10:10:21;7.65;;;2.75;;
31652;SDS011;18261;53.648;9.910;2022-09-12T10:12:47;6.45;;;3.10;;
31652;SDS011;18261;53.648;9.910;2022-09-12T10:15:20;10.88;;;3.15;;
31652;SDS011;18261;53.648;9.910;2022-09-12T10:17:48;6.75;;;2.80;;
31652;SDS011;18261;53.648;9.910;2022-09-12T10:22:59;7.78;;;2.95;;
31652;SDS011;18261;53.648;9.910;2022-09-12T10:25:25;9.93;;;3.45;;
31652;SDS011;18261;53.648;9.910;2022-09-12T10:27:53;6.50;;;3.28;;
31652;SDS011;18261;53.648;9.910;2022-09-12T10:30:20;7.95;;;2.83;;
31652;SDS011;18261;53.648;9.910;2022-09-12T10:32:49;19.98;;;3.97;;
31652;SDS011;18261;53.648;9.910;2022-09-12T10:35:19;8.02;;;2.38;;
31652;SDS011;18261;53.648;9.910;2022-09-12T10:37:51;7.65;;;2.50;;
31652;SDS011;18261;53.648;9.910;2022-09-12T10:40:22;5.07;;;2.00;;
31652;SDS011;18261;53.648;9.910;2022-09-12T10:42:49;7.32;;;2.38;;
31652;SDS011;18261;53.648;9.910;2022-09-12T10:45:23;4.80;;;2.35;;
31652;SDS011;18261;53.648;9.910;2022-09-12T10:47:50;5.55;;;2.40;;
31652;SDS011;18261;53.648;9.910;2022-09-12T10:52:46;7.93;;;2.13;;
31652;SDS011;18261;53.648;9.910;2022-09-12T10:55:15;3.60;;;1.98;;
31652;SDS011;18261;53.648;9.910;2022-09-12T10:57:45;6.25;;;2.30;;
31652;SDS011;18261;53.648;9.910;2022-09-12T11:02:47;2.95;;;1.95;;
31652;SDS011;18261;53.648;9.910;2022-09-12T11:07:52;4.60;;;1.58;;
31652;SDS011;18261;53.648;9.910;2022-09-12T11:13:01;6.57;;;1.83;;
31652;SDS011;18261;53.648;9.910;2022-09-12T11:18:07;3.55;;;1.60;;
31652;SDS011;18261;53.648;9.910;2022-09-12T11:21:39;6.40;;;1.90;;
31652;SDS011;18261;53.648;9.910;2022-09-12T11:34:41;2.90;;;1.30;;
31652;SDS011;18261;53.648;9.910;2022-09-12T11:37:18;1.95;;;0.98;;
31652;SDS011;18261;53.648;9.910;2022-09-12T11:39:44;3.10;;;1.13;;
31652;SDS011;18261;53.648;9.910;2022-09-12T11:42:14;2.00;;;1.45;;
31652;SDS011;18261;53.648;9.910;2022-09-12T11:44:42;3.33;;;1.55;;
31652;SDS011;18261;53.648;9.910;2022-09-12T11:47:10;2.83;;;1.13;;
31652;SDS011;18261;53.648;9.910;2022-09-12T11:49:39;2.75;;;1.40;;
31652;SDS011;18261;53.648;9.910;2022-09-12T11:52:10;5.15;;;1.45;;
31652;SDS011;18261;53.648;9.910;2022-09-12T11:54:42;5.32;;;1.20;;
31652;SDS011;18261;53.648;9.910;2022-09-12T12:02:25;2.67;;;1.50;;
31652;SDS011;18261;53.648;9.910;2022-09-12T12:07:23;3.50;;;1.17;;
31652;SDS011;18261;53.648;9.910;2022-09-12T12:09:50;3.13;;;1.48;;
31652;SDS011;18261;53.648;9.910;2022-09-12T12:12:18;5.10;;;1.50;;
31652;SDS011;18261;53.648;9.910;2022-09-12T12:14:46;7.03;;;1.52;;
31652;SDS011;18261;53.648;9.910;2022-09-12T12:17:17;6.60;;;1.30;;
31652;SDS011;18261;53.648;9.910;2022-09-12T12:19:44;7.18;;;1.88;;
31652;SDS011;18261;53.648;9.910;2022-09-12T12:24:52;7.78;;;1.35;;
31652;SDS011;18261;53.648;9.910;2022-09-12T12:27:22;2.42;;;1.45;;
31652;SDS011;18261;53.648;9.910;2022-09-12T12:29:48;4.38;;;1.48;;
31652;SDS011;18261;53.648;9.910;2022-09-12T12:34:41;2.97;;;2.08;;
31652;SDS011;18261;53.648;9.910;2022-09-12T12:47:26;3.15;;;1.48;;
31652;SDS011;18261;53.648;9.910;2022-09-12T12:49:57;8.25;;;2.58;;
31652;SDS011;18261;53.648;9.910;2022-09-12T12:52:23;3.08;;;1.52;;
31652;SDS011;18261;53.648;9.910;2022-09-12T12:54:55;4.28;;;1.52;;
31652;SDS011;18261;53.648;9.910;2022-09-12T12:59:55;6.70;;;1.60;;
31652;SDS011;18261;53.648;9.910;2022-09-12T13:04:48;4.10;;;2.05;;
31652;SDS011;18261;53.648;9.910;2022-09-12T13:07:20;4.93;;;2.17;;
31652;SDS011;18261;53.648;9.910;2022-09-12T13:09:47;3.05;;;1.85;;
31652;SDS011;18261;53.648;9.910;2022-09-12T13:17:14;4.50;;;1.60;;
31652;SDS011;18261;53.648;9.910;2022-09-12T13:19:43;4.10;;;1.45;;
31652;SDS011;18261;53.648;9.910;2022-09-12T13:22:09;4.50;;;1.42;;
31652;SDS011;18261;53.648;9.910;2022-09-12T13:24:42;3.20;;;1.40;;
31652;SDS011;18261;53.648;9.910;2022-09-12T13:27:22;6.25;;;1.65;;
31652;SDS011;18261;53.648;9.910;2022-09-12T13:29:49;3.00;;;1.45;;
31652;SDS011;18261;53.648;9.910;2022-09-12T13:32:30;6.75;;;3.63;;
31652;SDS011;18261;53.648;9.910;2022-09-12T13:35:07;4.07;;;1.63;;
31652;SDS011;18261;53.648;9.910;2022-09-12T13:37:39;6.13;;;1.63;;
31652;SDS011;18261;53.648;9.910;2022-09-12T13:40:17;4.72;;;1.83;;
31652;SDS011;18261;53.648;9.910;2022-09-12T13:42:48;5.63;;;1.70;;
31652;SDS011;18261;53.648;9.910;2022-09-12T13:45:19;2.28;;;1.52;;
31652;SDS011;18261;53.648;9.910;2022-09-12T13:47:46;5.40;;;2.90;;
31652;SDS011;18261;53.648;9.910;2022-09-12T13:50:17;3.95;;;1.90;;
31652;SDS011;18261;53.648;9.910;2022-09-12T13:52:45;4.53;;;1.80;;
31652;SDS011;18261;53.648;9.910;2022-09-12T13:55:19;4.75;;;2.17;;
31652;SDS011;18261;53.648;9.910;2022-09-12T13:57:54;6.38;;;1.95;;
31652;SDS011;18261;53.648;9.910;2022-09-12T14:00:20;3.40;;;1.90;;
31652;SDS011;18261;53.648;9.910;2022-09-12T14:02:46;5.45;;;2.30;;
31652;SDS011;18261;53.648;9.910;2022-09-12T14:05:20;6.65;;;2.08;;
31652;SDS011;18261;53.648;9.910;2022-09-12T14:10:22;5.28;;;2.47;;
31652;SDS011;18261;53.648;9.910;2022-09-12T14:12:48;4.15;;;2.60;;
31652;SDS011;18261;53.648;9.910;2022-09-12T14:15:20;5.25;;;2.08;;
31652;SDS011;18261;53.648;9.910;2022-09-12T14:17:51;5.30;;;2.40;;
31652;SDS011;18261;53.648;9.910;2022-09-12T14:20:19;3.85;;;2.30;;
31652;SDS011;18261;53.648;9.910;2022-09-12T14:22:47;4.32;;;2.42;;
31652;SDS011;18261;53.648;9.910;2022-09-12T14:25:17;4.45;;;2.08;;
31652;SDS011;18261;53.648;9.910;2022-09-12T14:27:45;5.30;;;2.90;;
31652;SDS011;18261;53.648;9.910;2022-09-12T14:33:04;6.65;;;2.50;;
31652;SDS011;18261;53.648;9.910;2022-09-12T14:35:41;4.95;;;1.90;;
31652;SDS011;18261;53.648;9.910;2022-09-12T14:38:30;3.70;;;1.80;;
31652;SDS011;18261;53.648;9.910;2022-09-12T14:41:01;5.50;;;2.35;;
31652;SDS011;18261;53.648;9.910;2022-09-12T14:43:29;9.15;;;2.33;;
31652;SDS011;18261;53.648;9.910;2022-09-12T14:46:06;5.82;;;2.10;;
31652;SDS011;18261;53.648;9.910;2022-09-12T14:48:36;7.82;;;3.58;;
31652;SDS011;18261;53.648;9.910;2022-09-12T14:51:03;4.00;;;2.08;;
31652;SDS011;18261;53.648;9.910;2022-09-12T14:53:34;7.55;;;2.10;;
31652;SDS011;18261;53.648;9.910;2022-09-12T14:56:10;8.95;;;2.50;;
31652;SDS011;18261;53.648;9.910;2022-09-12T14:58:40;7.90;;;2.42;;
31652;SDS011;18261;53.648;9.910;2022-09-12T15:05:59;4.10;;;2.60;;
31652;SDS011;18261;53.648;9.910;2022-09-12T15:08:27;5.55;;;2.20;;
31652;SDS011;18261;53.648;9.910;2022-09-12T15:10:53;6.70;;;2.05;;
31652;SDS011;18261;53.648;9.910;2022-09-12T15:13:23;4.57;;;2.03;;
31652;SDS011;18261;53.648;9.910;2022-09-12T15:15:51;4.75;;;2.17;;
31652;SDS011;18261;53.648;9.910;2022-09-12T15:18:17;5.95;;;2.20;;
31652;SDS011;18261;53.648;9.910;2022-09-12T15:20:44;4.60;;;2.00;;
31652;SDS011;18261;53.648;9.910;2022-09-12T15:23:13;4.90;;;2.40;;
31652;SDS011;18261;53.648;9.910;2022-09-12T15:25:40;5.90;;;2.10;;
31652;SDS011;18261;53.648;9.910;2022-09-12T15:28:14;3.53;;;2.00;;
31652;SDS011;18261;53.648;9.910;2022-09-12T15:30:41;7.80;;;3.17;;
31652;SDS011;18261;53.648;9.910;2022-09-12T15:33:07;3.92;;;2.30;;
31652;SDS011;18261;53.648;9.910;2022-09-12T15:35:33;5.03;;;2.10;;
31652;SDS011;18261;53.648;9.910;2022-09-12T15:37:59;11.73;;;2.90;;
31652;SDS011;18261;53.648;9.910;2022-09-12T15:40:25;5.57;;;2.95;;
31652;SDS011;18261;53.648;9.910;2022-09-12T15:42:51;4.82;;;2.40;;
31652;SDS011;18261;53.648;9.910;2022-09-12T15:45:18;5.88;;;3.38;;
31652;SDS011;18261;53.648;9.910;2022-09-12T15:47:45;5.93;;;3.05;;
31652;SDS011;18261;53.648;9.910;2022-09-12T15:50:11;6.13;;;3.10;;
31652;SDS011;18261;53.648;9.910;2022-09-12T15:52:37;5.65;;;2.58;;
31652;SDS011;18261;53.648;9.910;2022-09-12T15:55:03;6.63;;;2.95;;
31652;SDS011;18261;53.648;9.910;2022-09-12T15:57:29;5.00;;;2.90;;
31652;SDS011;18261;53.648;9.910;2022-09-12T15:59:55;5.28;;;2.85;;
31652;SDS011;18261;53.648;9.910;2022-09-12T16:02:21;5.43;;;2.72;;
31652;SDS011;18261;53.648;9.910;2022-09-12T16:04:47;7.90;;;3.28;;
31652;SDS011;18261;53.648;9.910;2022-09-12T16:07:13;6.82;;;2.90;;
31652;SDS011;18261;53.648;9.910;2022-09-12T16:09:39;4.88;;;2.75;;
31652;SDS011;18261;53.648;9.910;2022-09-12T16:12:05;6.40;;;3.10;;
31652;SDS011;18261;53.648;9.910;2022-09-12T16:14:31;6.47;;;2.97;;
31652;SDS011;18261;53.648;9.910;2022-09-12T16:16:57;6.38;;;3.13;;
31652;SDS011;18261;53.648;9.910;2022-09-12T16:19:23;5.43;;;2.97;;
31652;SDS011;18261;53.648;9.910;2022-09-12T16:21:49;6.32;;;2.60;;
31652;SDS011;18261;53.648;9.910;2022-09-12T16:24:15;7.18;;;3.40;;
31652;SDS011;18261;53.648;9.910;2022-09-12T16:26:41;9.35;;;3.00;;
31652;SDS011;18261;53.648;9.910;2022-09-12T16:29:07;11.13;;;3.28;;
31652;SDS011;18261;53.648;9.910;2022-09-12T16:31:34;7.88;;;3.15;;
31652;SDS011;18261;53.648;9.910;2022-09-12T16:34:02;7.72;;;3.85;;
31652;SDS011;18261;53.648;9.910;2022-09-12T16:36:28;12.48;;;3.15;;
31652;SDS011;18261;53.648;9.910;2022-09-12T16:38:54;8.60;;;3.28;;
31652;SDS011;18261;53.648;9.910;2022-09-12T16:41:21;5.13;;;2.92;;
31652;SDS011;18261;53.648;9.910;2022-09-12T16:43:49;4.72;;;3.00;;
31652;SDS011;18261;53.648;9.910;2022-09-12T16:46:16;7.00;;;3.45;;
31652;SDS011;18261;53.648;9.910;2022-09-12T16:48:52;4.95;;;2.90;;
31652;SDS011;18261;53.648;9.910;2022-09-12T16:51:19;5.72;;;2.90;;
31652;SDS011;18261;53.648;9.910;2022-09-12T16:53:46;5.82;;;3.20;;
31652;SDS011;18261;53.648;9.910;2022-09-12T16:56:12;4.60;;;2.90;;
31652;SDS011;18261;53.648;9.910;2022-09-12T16:58:39;3.75;;;3.00;;